»·PEaware :: SWA1342 KPHX-KLAS

SWA1342 :: KPHX-KLAS

FLIGHT INFORMATION

Flight Status: Arrived
Operator:
Southwest Airlines
More flights by this operator :: More flights under this callsign
Pilot: Cody B. (17747)
Aircraft: BOEING 737-800
(B738)
More flights by this aircraft type
Origin: KPHX Phoenix Sky Harbor Intl
United States
Destination: KLAS McCarran Intl
United States
More flights between these airports :: More routes between these airports
Route: ZEPER1 SISIE IGM TYSSN5
File this flight plan on PilotEdge
Remarks:
Altitude:
(Current/Filed)
28,000ft
Speed:
(Current/Filed)
483kts
Departed: 06-Jul-18 03:50 PM
Arrived: 06-Jul-18 04:34 PM
Distance/Time
Traveled:
222nm/0:44
Distance/Time
To Go:
Arrived

Flight Plot

Page will automatically refresh every two minutes.

Flight plan parsing failed; only flown route is shown


Map Options




Map Legend


Flown Route
Filed Route
Departure Airport
Arrival Airport
Navaid (VOR, NDB)
Fix

Horizontal Profiles

Position Reports

Time Latitude Longitude Heading Altitude Ground
Speed
06-Jul-18 15:13 33.433428 -111.996435 359 1142ft 0kts
06-Jul-18 15:14 33.433428 -111.996435 359 1142ft 0kts
06-Jul-18 15:15 33.433428 -111.996435 359 1142ft 0kts
06-Jul-18 15:16 33.433428 -111.996435 359 1142ft 0kts
06-Jul-18 15:17 33.433428 -111.996435 359 1142ft 0kts
06-Jul-18 15:18 33.433428 -111.996435 359 1142ft 0kts
06-Jul-18 15:19 33.433428 -111.996435 359 1142ft 0kts
06-Jul-18 15:20 33.433428 -111.996435 359 1142ft 0kts
06-Jul-18 15:21 33.433428 -111.996435 359 1142ft 0kts
06-Jul-18 15:22 33.433428 -111.996435 359 1142ft 0kts
06-Jul-18 15:23 33.433428 -111.996435 359 1142ft 0kts
06-Jul-18 15:24 33.433428 -111.996435 359 1142ft 0kts
06-Jul-18 15:25 33.433428 -111.996435 359 1142ft 0kts
06-Jul-18 15:26 33.433428 -111.996435 359 1142ft 0kts
06-Jul-18 15:27 33.433428 -111.996435 359 1142ft 0kts
06-Jul-18 15:28 33.433428 -111.996435 359 1142ft 0kts
06-Jul-18 15:29 33.433428 -111.996435 359 1142ft 0kts
06-Jul-18 15:30 33.433428 -111.996435 359 1142ft 0kts
06-Jul-18 15:31 33.433428 -111.996435 359 1142ft 0kts
06-Jul-18 15:32 33.433428 -111.996435 359 1142ft 0kts
06-Jul-18 15:33 33.433428 -111.996435 359 1142ft 0kts
06-Jul-18 15:34 33.433428 -111.996435 359 1142ft 0kts
06-Jul-18 15:35 33.433428 -111.996435 359 1142ft 0kts
06-Jul-18 15:36 33.433159 -111.996434 359 1142ft 0kts
06-Jul-18 15:37 33.432829 -111.996085 272 1142ft 0kts
06-Jul-18 15:38 33.432832 -111.996000 268 1142ft 0kts
06-Jul-18 15:39 33.432832 -111.996000 268 1142ft 0kts
06-Jul-18 15:40 33.432832 -111.996034 268 1142ft 0kts
06-Jul-18 15:41 33.432820 -111.997187 270 1142ft 6kts
06-Jul-18 15:42 33.432143 -111.999603 270 1142ft 12kts
06-Jul-18 15:43 33.432136 -112.005024 269 1142ft 14kts
06-Jul-18 15:43 33.432147 -112.009206 270 1142ft 17kts
06-Jul-18 15:44 33.432150 -112.015129 269 1142ft 17kts
06-Jul-18 15:45 33.432156 -112.021147 270 1142ft 18kts
06-Jul-18 15:46 33.432160 -112.026400 270 1142ft 8kts
06-Jul-18 15:47 33.431988 -112.026908 195 1142ft 0kts
06-Jul-18 15:48 33.431976 -112.026911 194 1142ft 0kts
06-Jul-18 15:49 33.431185 -112.026935 146 1142ft 1kts
06-Jul-18 15:50 33.431075 -112.017473 90 1142ft 108kts
06-Jul-18 15:51 33.432131 -111.963927 89 2744ft 179kts
06-Jul-18 15:52 33.435377 -111.896960 86 4764ft 225kts
06-Jul-18 15:53 33.477684 -111.842963 8 6998ft 277kts
06-Jul-18 15:54 33.556183 -111.839474 4 8088ft 285kts
06-Jul-18 15:55 33.637334 -111.837045 4 9053ft 289kts
06-Jul-18 15:56 33.719940 -111.849193 341 11077ft 315kts
06-Jul-18 15:57 33.782828 -111.928126 308 13382ft 342kts
06-Jul-18 15:58 33.839512 -112.022165 308 15661ft 356kts
06-Jul-18 15:59 33.898516 -112.119607 307 17838ft 367kts
06-Jul-18 16:00 33.959346 -112.220083 307 19816ft 379kts
06-Jul-18 16:01 34.022273 -112.324149 309 21581ft 392kts
06-Jul-18 16:02 34.104210 -112.411811 322 23215ft 401kts
06-Jul-18 16:03 34.189200 -112.497337 322 24816ft 409kts
06-Jul-18 16:04 34.276583 -112.585506 321 26438ft 413kts
06-Jul-18 16:05 34.363909 -112.673877 321 27785ft 420kts
06-Jul-18 16:06 34.454495 -112.765762 320 28344ft 439kts
06-Jul-18 16:07 34.550450 -112.863350 320 28345ft 465kts
06-Jul-18 16:08 34.647692 -112.967547 318 28340ft 467kts
06-Jul-18 16:09 34.743555 -113.072416 318 28341ft 468kts
06-Jul-18 16:10 34.840102 -113.178372 318 28338ft 469kts
06-Jul-18 16:11 34.936373 -113.284272 318 28295ft 471kts
06-Jul-18 16:12 35.003852 -113.414268 280 28181ft 472kts
06-Jul-18 16:13 35.073352 -113.541039 318 28139ft 440kts
06-Jul-18 16:15 35.137630 -113.663076 298 28142ft 440kts
06-Jul-18 16:16 35.196240 -113.791390 298 27357ft 435kts
06-Jul-18 16:17 35.255573 -113.918429 307 24779ft 429kts
06-Jul-18 16:18 35.344871 -114.010627 323 24150ft 422kts
06-Jul-18 16:19 35.434642 -114.094665 323 24147ft 422kts
06-Jul-18 16:20 35.527942 -114.181839 323 24150ft 422kts
06-Jul-18 16:21 35.620340 -114.268293 322 21495ft 408kts
06-Jul-18 16:22 35.706671 -114.349172 322 17696ft 378kts
06-Jul-18 16:23 35.794509 -114.408491 340 14015ft 354kts
06-Jul-18 16:24 35.882045 -114.449328 340 11996ft 314kts
06-Jul-18 16:25 35.956526 -114.496661 299 11730ft 308kts
06-Jul-18 16:26 35.988311 -114.591990 291 9880ft 295kts
06-Jul-18 16:27 36.016872 -114.683682 290 8806ft 286kts
06-Jul-18 16:28 36.044397 -114.772813 290 8288ft 269kts
06-Jul-18 16:29 36.070287 -114.851531 291 7974ft 235kts
06-Jul-18 16:30 36.096213 -114.923637 294 6620ft 247kts
06-Jul-18 16:31 36.129218 -114.993566 309 5370ft 227kts
06-Jul-18 16:32 36.166710 -115.049360 295 4655ft 211kts
06-Jul-18 16:33 36.149884 -115.108047 236 3597ft 173kts
06-Jul-18 16:34 36.116221 -115.143512 200 2597ft 159kts
06-Jul-18 16:35 36.084683 -115.161467 184 2149ft 18kts
06-Jul-18 16:36 36.082842 -115.161160 174 2149ft 0kts
06-Jul-18 16:37 36.082746 -115.161146 173 2149ft 0kts
06-Jul-18 16:38 36.082033 -115.161036 172 2149ft 6kts
06-Jul-18 16:39 36.081625 -115.158163 89 2149ft 12kts
06-Jul-18 16:40 36.081520 -115.154185 100 2148ft 12kts
06-Jul-18 16:41 36.080170 -115.151155 177 2149ft 8kts
06-Jul-18 16:42 36.078700 -115.149960 95 2149ft 9kts
06-Jul-18 16:43 36.079082 -115.147434 340 2149ft 5kts
06-Jul-18 16:44 36.079793 -115.147370 54 2149ft 1kts
06-Jul-18 16:45 36.079898 -115.147167 58 2149ft 0kts
06-Jul-18 16:46 36.079922 -115.147119 57 2149ft 0kts

Navigation Log

Ident Type
Flight plan parsing failed, navigation log unavailable